Pagrindinis puslapis
METAR-TAF:

METAR-TAF

Oro uostai :

Reikjavikas, Islandija

platuma: 64-08N, ilguma: 021-54W, Aukštis: 54 m

Dabartinis oras

Ataskaita buvo paskelbta 1 valandą ir 1 minutes, ne 04:00 UTC
Vėjas 2 kt nuo kintamojo kryptimis
Temperatūra -2°C
Drėgmė 74%
Slėgis 969 hPa
Matomumas 10 km arba daugiau
Mažai debesys ne aukštis 2000 ft

METAR: BIRK 220400Z VRB02KT 9999 FEW020 M02/M06 Q0969

Laikas: 05:01 (05:01 UTC)

Prognozė

Ataskaita buvo paskelbta 4 valandos ir 0 minutes, ne 01:01 UTC
Prognozė galioja nuo 22 metu 03 UTC su 23 metu 03 UTC
Vėjas 8 kt iš Šiaurės/Šiaurės Rytų
Matomumas 10 km arba daugiau
Mažai debesys ne aukštis 2500 ft
Laikinai
nuo 23 metu 00 UTC su 23 metu 03 UTC
Matomumas: 4000 m
Su prošvaistėmis ne aukštis 1400 ft
sniegas

TAF: BIRK 220101Z 2203/2303 02008KT 9999 FEW025 TX02/2215Z TNM03/2206Z TEMPO 2300/2303 4000 SHSN BKN014

Orai ataskaitas ir orų prognozės (METAR, TAF).

turimą stotys yra geltonos ir raudonos taškus žemėlapyje.

Perkelti pele per norėdami pamatyti stoties vardą.

Tada spustelėkite, norėdami matyti oro stebėjimo ir prognozės.

Norėdami pakeisti žemėlapį: spustelėkite ant žalios mygtukų su juodo kryžiaus žemyn,; žalią mygtuką su brūkšneliu, jei norite nutolinti; arba žalių rodyklių gretimoms žemėlapius.


METAR-TAF: